Port Essington, Canada
Current Conditions -  °F | °C
As of 10:00 PM on Friday 28 Nov 2014 (Local Time) from CYPR Reporting Station
Clear Clear  
Wind Chill: 10°   Ceiling: Unl
Heat Index: 21°   Visibility: 9mi
Dew Point:   Wind: 10mph
Humidity: 54%   Direction: 40°NE
Pressure: 30.06"   Gusts: NA
Location:  54.15°N, 129.96°W
Report Text: CYPR 290600Z AUTO 04009KT 9SM CLR M06/M14 A3006 RMK SLP182
Loading
Personal Weather Stations






























Interactive Weather Map New forecast layout! Learn more

10-Day Weather Forecast

Advertisements
Track Severe Weather on mobile